sensor_id;sensor_type;location;lat;lon;timestamp;P1;durP1;ratioP1;P2;durP2;ratioP2
43620;SDS011;29213;50.770;7.298;2023-12-20T00:01:00;3.70;;;1.58;;
43620;SDS011;29213;50.770;7.298;2023-12-20T00:03:26;2.75;;;1.52;;
43620;SDS011;29213;50.770;7.298;2023-12-20T00:05:51;2.95;;;1.40;;
43620;SDS011;29213;50.770;7.298;2023-12-20T00:08:17;2.72;;;1.45;;
43620;SDS011;29213;50.770;7.298;2023-12-20T00:10:43;4.60;;;1.52;;
43620;SDS011;29213;50.770;7.298;2023-12-20T00:13:10;3.45;;;1.63;;
43620;SDS011;29213;50.770;7.298;2023-12-20T00:15:36;2.63;;;1.52;;
43620;SDS011;29213;50.770;7.298;2023-12-20T00:18:01;2.30;;;1.30;;
43620;SDS011;29213;50.770;7.298;2023-12-20T00:20:27;2.70;;;1.50;;
43620;SDS011;29213;50.770;7.298;2023-12-20T00:22:54;2.30;;;1.40;;
43620;SDS011;29213;50.770;7.298;2023-12-20T00:25:21;2.58;;;1.40;;
43620;SDS011;29213;50.770;7.298;2023-12-20T00:27:46;2.38;;;1.40;;
43620;SDS011;29213;50.770;7.298;2023-12-20T00:30:11;2.25;;;1.27;;
43620;SDS011;29213;50.770;7.298;2023-12-20T00:32:37;2.70;;;1.50;;
43620;SDS011;29213;50.770;7.298;2023-12-20T00:35:03;2.78;;;1.42;;
43620;SDS011;29213;50.770;7.298;2023-12-20T00:37:29;2.58;;;1.50;;
43620;SDS011;29213;50.770;7.298;2023-12-20T00:39:54;2.53;;;1.50;;
43620;SDS011;29213;50.770;7.298;2023-12-20T00:42:19;3.17;;;1.65;;
43620;SDS011;29213;50.770;7.298;2023-12-20T00:44:45;2.83;;;1.70;;
43620;SDS011;29213;50.770;7.298;2023-12-20T00:47:10;2.63;;;1.55;;
43620;SDS011;29213;50.770;7.298;2023-12-20T00:49:36;2.85;;;1.60;;
43620;SDS011;29213;50.770;7.298;2023-12-20T00:52:01;2.60;;;1.33;;
43620;SDS011;29213;50.770;7.298;2023-12-20T00:54:27;3.22;;;1.50;;
43620;SDS011;29213;50.770;7.298;2023-12-20T00:56:52;2.55;;;1.35;;
43620;SDS011;29213;50.770;7.298;2023-12-20T00:59:17;3.03;;;1.60;;
43620;SDS011;29213;50.770;7.298;2023-12-20T01:01:43;2.90;;;1.30;;
43620;SDS011;29213;50.770;7.298;2023-12-20T01:04:09;2.50;;;1.50;;
43620;SDS011;29213;50.770;7.298;2023-12-20T01:06:35;3.35;;;1.83;;
43620;SDS011;29213;50.770;7.298;2023-12-20T01:09:00;3.10;;;1.60;;
43620;SDS011;29213;50.770;7.298;2023-12-20T01:11:25;2.50;;;1.42;;
43620;SDS011;29213;50.770;7.298;2023-12-20T01:13:51;2.78;;;1.40;;
43620;SDS011;29213;50.770;7.298;2023-12-20T01:16:17;2.65;;;1.65;;
43620;SDS011;29213;50.770;7.298;2023-12-20T01:18:42;2.63;;;1.50;;
43620;SDS011;29213;50.770;7.298;2023-12-20T01:21:07;4.20;;;2.00;;
43620;SDS011;29213;50.770;7.298;2023-12-20T01:23:33;3.25;;;2.17;;
43620;SDS011;29213;50.770;7.298;2023-12-20T01:25:58;4.28;;;2.45;;
43620;SDS011;29213;50.770;7.298;2023-12-20T01:28:25;3.63;;;2.33;;
43620;SDS011;29213;50.770;7.298;2023-12-20T01:30:50;3.00;;;1.92;;
43620;SDS011;29213;50.770;7.298;2023-12-20T01:33:16;3.65;;;2.30;;
43620;SDS011;29213;50.770;7.298;2023-12-20T01:35:41;3.80;;;2.50;;
43620;SDS011;29213;50.770;7.298;2023-12-20T01:38:06;3.70;;;2.60;;
43620;SDS011;29213;50.770;7.298;2023-12-20T01:40:32;3.78;;;2.60;;
43620;SDS011;29213;50.770;7.298;2023-12-20T01:42:58;3.97;;;2.80;;
43620;SDS011;29213;50.770;7.298;2023-12-20T01:45:27;5.13;;;3.13;;
43620;SDS011;29213;50.770;7.298;2023-12-20T01:47:53;5.28;;;3.17;;
43620;SDS011;29213;50.770;7.298;2023-12-20T01:50:23;4.82;;;3.40;;
43620;SDS011;29213;50.770;7.298;2023-12-20T01:52:49;4.80;;;3.45;;
43620;SDS011;29213;50.770;7.298;2023-12-20T01:55:18;5.75;;;4.00;;
43620;SDS011;29213;50.770;7.298;2023-12-20T01:57:44;4.75;;;3.75;;
43620;SDS011;29213;50.770;7.298;2023-12-20T02:00:10;4.95;;;3.80;;
43620;SDS011;29213;50.770;7.298;2023-12-20T02:02:37;6.70;;;4.57;;
43620;SDS011;29213;50.770;7.298;2023-12-20T02:05:05;6.25;;;4.45;;
43620;SDS011;29213;50.770;7.298;2023-12-20T02:07:31;5.07;;;4.03;;
43620;SDS011;29213;50.770;7.298;2023-12-20T02:09:56;6.57;;;4.78;;
43620;SDS011;29213;50.770;7.298;2023-12-20T02:12:21;7.90;;;5.10;;
43620;SDS011;29213;50.770;7.298;2023-12-20T02:14:47;6.78;;;4.68;;
43620;SDS011;29213;50.770;7.298;2023-12-20T02:17:13;6.95;;;5.18;;
43620;SDS011;29213;50.770;7.298;2023-12-20T02:19:39;9.45;;;5.85;;
43620;SDS011;29213;50.770;7.298;2023-12-20T02:22:06;7.82;;;5.50;;
43620;SDS011;29213;50.770;7.298;2023-12-20T02:24:40;8.30;;;5.85;;
43620;SDS011;29213;50.770;7.298;2023-12-20T02:27:06;8.15;;;5.82;;
43620;SDS011;29213;50.770;7.298;2023-12-20T02:29:33;11.30;;;5.90;;
43620;SDS011;29213;50.770;7.298;2023-12-20T02:31:59;9.18;;;6.25;;
43620;SDS011;29213;50.770;7.298;2023-12-20T02:34:24;9.60;;;6.32;;
43620;SDS011;29213;50.770;7.298;2023-12-20T02:36:50;8.20;;;5.40;;
43620;SDS011;29213;50.770;7.298;2023-12-20T02:39:16;9.85;;;6.30;;
43620;SDS011;29213;50.770;7.298;2023-12-20T02:41:41;10.27;;;6.63;;
43620;SDS011;29213;50.770;7.298;2023-12-20T02:44:07;10.63;;;6.28;;
43620;SDS011;29213;50.770;7.298;2023-12-20T02:46:32;10.52;;;6.55;;
43620;SDS011;29213;50.770;7.298;2023-12-20T02:48:57;12.77;;;5.80;;
43620;SDS011;29213;50.770;7.298;2023-12-20T02:51:23;9.68;;;5.63;;
43620;SDS011;29213;50.770;7.298;2023-12-20T02:53:48;12.07;;;5.93;;
43620;SDS011;29213;50.770;7.298;2023-12-20T02:56:13;9.65;;;5.20;;
43620;SDS011;29213;50.770;7.298;2023-12-20T02:58:39;10.02;;;4.97;;
43620;SDS011;29213;50.770;7.298;2023-12-20T03:01:05;11.15;;;4.25;;
43620;SDS011;29213;50.770;7.298;2023-12-20T03:03:31;13.18;;;4.40;;
43620;SDS011;29213;50.770;7.298;2023-12-20T03:05:56;11.93;;;4.35;;
43620;SDS011;29213;50.770;7.298;2023-12-20T03:08:22;10.80;;;3.70;;
43620;SDS011;29213;50.770;7.298;2023-12-20T03:10:47;11.25;;;3.58;;
43620;SDS011;29213;50.770;7.298;2023-12-20T03:13:13;11.07;;;3.08;;
43620;SDS011;29213;50.770;7.298;2023-12-20T03:15:38;9.60;;;3.10;;
43620;SDS011;29213;50.770;7.298;2023-12-20T03:18:03;8.43;;;2.67;;
43620;SDS011;29213;50.770;7.298;2023-12-20T03:20:29;7.63;;;2.40;;
43620;SDS011;29213;50.770;7.298;2023-12-20T03:22:58;7.03;;;2.38;;
43620;SDS011;29213;50.770;7.298;2023-12-20T03:25:23;8.00;;;3.10;;
43620;SDS011;29213;50.770;7.298;2023-12-20T03:27:48;11.95;;;3.63;;
43620;SDS011;29213;50.770;7.298;2023-12-20T03:30:14;8.50;;;2.80;;
43620;SDS011;29213;50.770;7.298;2023-12-20T03:32:39;9.48;;;2.95;;
43620;SDS011;29213;50.770;7.298;2023-12-20T03:35:05;8.05;;;2.60;;
43620;SDS011;29213;50.770;7.298;2023-12-20T03:37:31;11.43;;;2.67;;
43620;SDS011;29213;50.770;7.298;2023-12-20T03:39:56;8.23;;;2.30;;
43620;SDS011;29213;50.770;7.298;2023-12-20T03:42:21;7.35;;;1.90;;
43620;SDS011;29213;50.770;7.298;2023-12-20T03:44:47;5.50;;;2.05;;
43620;SDS011;29213;50.770;7.298;2023-12-20T03:47:12;8.10;;;1.80;;
43620;SDS011;29213;50.770;7.298;2023-12-20T03:49:38;6.32;;;1.92;;
43620;SDS011;29213;50.770;7.298;2023-12-20T03:52:04;6.63;;;2.00;;
43620;SDS011;29213;50.770;7.298;2023-12-20T03:54:30;6.38;;;1.80;;
43620;SDS011;29213;50.770;7.298;2023-12-20T03:56:55;7.53;;;1.90;;
43620;SDS011;29213;50.770;7.298;2023-12-20T03:59:20;7.20;;;2.40;;
43620;SDS011;29213;50.770;7.298;2023-12-20T04:01:46;5.57;;;1.90;;
43620;SDS011;29213;50.770;7.298;2023-12-20T04:04:11;10.40;;;2.60;;
43620;SDS011;29213;50.770;7.298;2023-12-20T04:06:37;11.00;;;2.78;;
43620;SDS011;29213;50.770;7.298;2023-12-20T04:09:03;9.07;;;2.25;;
43620;SDS011;29213;50.770;7.298;2023-12-20T04:11:28;11.75;;;2.95;;
43620;SDS011;29213;50.770;7.298;2023-12-20T04:13:54;10.15;;;2.53;;
43620;SDS011;29213;50.770;7.298;2023-12-20T04:16:19;7.30;;;2.13;;
43620;SDS011;29213;50.770;7.298;2023-12-20T04:18:44;8.00;;;2.45;;
43620;SDS011;29213;50.770;7.298;2023-12-20T04:21:10;13.82;;;2.92;;
43620;SDS011;29213;50.770;7.298;2023-12-20T04:23:35;6.90;;;2.58;;
43620;SDS011;29213;50.770;7.298;2023-12-20T04:26:01;6.85;;;2.17;;
43620;SDS011;29213;50.770;7.298;2023-12-20T04:28:26;8.20;;;2.15;;
43620;SDS011;29213;50.770;7.298;2023-12-20T04:30:51;11.02;;;2.38;;
43620;SDS011;29213;50.770;7.298;2023-12-20T04:33:17;9.40;;;2.65;;
43620;SDS011;29213;50.770;7.298;2023-12-20T04:35:42;11.15;;;2.40;;
43620;SDS011;29213;50.770;7.298;2023-12-20T04:38:08;8.75;;;2.70;;
43620;SDS011;29213;50.770;7.298;2023-12-20T04:40:34;6.43;;;2.38;;
43620;SDS011;29213;50.770;7.298;2023-12-20T04:42:59;8.48;;;2.40;;
43620;SDS011;29213;50.770;7.298;2023-12-20T04:45:25;10.05;;;2.80;;
43620;SDS011;29213;50.770;7.298;2023-12-20T04:47:51;9.55;;;2.72;;
43620;SDS011;29213;50.770;7.298;2023-12-20T04:50:16;12.95;;;3.08;;
43620;SDS011;29213;50.770;7.298;2023-12-20T04:52:42;7.05;;;2.40;;
43620;SDS011;29213;50.770;7.298;2023-12-20T04:55:07;8.98;;;3.15;;
43620;SDS011;29213;50.770;7.298;2023-12-20T04:57:34;8.23;;;2.67;;
43620;SDS011;29213;50.770;7.298;2023-12-20T04:59:59;8.57;;;2.70;;
43620;SDS011;29213;50.770;7.298;2023-12-20T05:02:25;8.05;;;2.75;;
43620;SDS011;29213;50.770;7.298;2023-12-20T05:04:50;9.77;;;2.50;;
43620;SDS011;29213;50.770;7.298;2023-12-20T05:07:16;11.43;;;2.63;;
43620;SDS011;29213;50.770;7.298;2023-12-20T05:09:41;8.57;;;2.63;;
43620;SDS011;29213;50.770;7.298;2023-12-20T05:12:07;11.07;;;2.92;;
43620;SDS011;29213;50.770;7.298;2023-12-20T05:14:33;6.18;;;2.40;;
43620;SDS011;29213;50.770;7.298;2023-12-20T05:16:58;10.15;;;3.10;;
43620;SDS011;29213;50.770;7.298;2023-12-20T05:19:24;8.52;;;2.90;;
43620;SDS011;29213;50.770;7.298;2023-12-20T05:21:49;12.50;;;3.28;;
43620;SDS011;29213;50.770;7.298;2023-12-20T05:24:15;8.95;;;2.67;;
43620;SDS011;29213;50.770;7.298;2023-12-20T05:26:40;12.00;;;3.10;;
43620;SDS011;29213;50.770;7.298;2023-12-20T05:29:06;11.68;;;3.30;;
43620;SDS011;29213;50.770;7.298;2023-12-20T05:31:31;10.57;;;2.95;;
43620;SDS011;29213;50.770;7.298;2023-12-20T05:33:57;12.18;;;3.28;;
43620;SDS011;29213;50.770;7.298;2023-12-20T05:36:23;9.18;;;2.92;;
43620;SDS011;29213;50.770;7.298;2023-12-20T05:38:48;9.93;;;2.83;;
43620;SDS011;29213;50.770;7.298;2023-12-20T05:41:14;9.25;;;2.72;;
43620;SDS011;29213;50.770;7.298;2023-12-20T05:43:39;10.02;;;3.10;;
43620;SDS011;29213;50.770;7.298;2023-12-20T05:46:04;8.63;;;2.85;;
43620;SDS011;29213;50.770;7.298;2023-12-20T05:48:30;5.55;;;2.38;;
43620;SDS011;29213;50.770;7.298;2023-12-20T05:50:55;9.35;;;2.80;;
43620;SDS011;29213;50.770;7.298;2023-12-20T05:53:21;7.50;;;2.70;;
43620;SDS011;29213;50.770;7.298;2023-12-20T05:55:46;8.35;;;2.47;;
43620;SDS011;29213;50.770;7.298;2023-12-20T05:58:12;10.40;;;3.40;;
43620;SDS011;29213;50.770;7.298;2023-12-20T06:00:37;8.55;;;2.92;;
43620;SDS011;29213;50.770;7.298;2023-12-20T06:03:03;9.40;;;2.75;;
43620;SDS011;29213;50.770;7.298;2023-12-20T06:05:30;11.65;;;3.50;;
43620;SDS011;29213;50.770;7.298;2023-12-20T06:07:56;12.88;;;3.50;;
43620;SDS011;29213;50.770;7.298;2023-12-20T06:10:26;13.70;;;3.42;;
43620;SDS011;29213;50.770;7.298;2023-12-20T06:12:52;11.35;;;3.53;;
43620;SDS011;29213;50.770;7.298;2023-12-20T06:15:17;8.88;;;2.88;;
43620;SDS011;29213;50.770;7.298;2023-12-20T06:17:43;11.70;;;3.38;;
43620;SDS011;29213;50.770;7.298;2023-12-20T06:20:08;7.60;;;2.92;;
43620;SDS011;29213;50.770;7.298;2023-12-20T06:22:35;10.52;;;2.97;;
43620;SDS011;29213;50.770;7.298;2023-12-20T06:25:01;8.55;;;3.00;;
43620;SDS011;29213;50.770;7.298;2023-12-20T06:27:28;10.23;;;2.97;;
43620;SDS011;29213;50.770;7.298;2023-12-20T06:29:53;14.52;;;3.50;;
43620;SDS011;29213;50.770;7.298;2023-12-20T06:32:19;10.13;;;3.42;;
43620;SDS011;29213;50.770;7.298;2023-12-20T06:34:44;11.10;;;3.63;;
43620;SDS011;29213;50.770;7.298;2023-12-20T06:37:10;9.02;;;3.15;;
43620;SDS011;29213;50.770;7.298;2023-12-20T06:39:35;7.88;;;2.97;;
43620;SDS011;29213;50.770;7.298;2023-12-20T06:42:01;8.52;;;3.10;;
43620;SDS011;29213;50.770;7.298;2023-12-20T06:44:26;13.23;;;3.58;;
43620;SDS011;29213;50.770;7.298;2023-12-20T06:46:51;8.57;;;3.00;;
43620;SDS011;29213;50.770;7.298;2023-12-20T06:49:17;8.50;;;3.25;;
43620;SDS011;29213;50.770;7.298;2023-12-20T06:51:43;8.07;;;3.13;;
43620;SDS011;29213;50.770;7.298;2023-12-20T06:54:09;12.02;;;3.10;;
43620;SDS011;29213;50.770;7.298;2023-12-20T06:56:34;15.70;;;4.03;;
43620;SDS011;29213;50.770;7.298;2023-12-20T06:58:59;13.35;;;2.80;;
43620;SDS011;29213;50.770;7.298;2023-12-20T07:01:25;13.60;;;3.83;;
43620;SDS011;29213;50.770;7.298;2023-12-20T07:03:50;12.60;;;3.45;;
43620;SDS011;29213;50.770;7.298;2023-12-20T07:06:15;9.68;;;3.30;;
43620;SDS011;29213;50.770;7.298;2023-12-20T07:08:42;12.18;;;3.80;;
43620;SDS011;29213;50.770;7.298;2023-12-20T07:11:07;10.23;;;2.95;;
43620;SDS011;29213;50.770;7.298;2023-12-20T07:13:33;11.95;;;3.30;;
43620;SDS011;29213;50.770;7.298;2023-12-20T07:15:58;11.45;;;3.50;;
43620;SDS011;29213;50.770;7.298;2023-12-20T07:18:24;8.85;;;3.00;;
43620;SDS011;29213;50.770;7.298;2023-12-20T07:20:49;11.55;;;3.60;;
43620;SDS011;29213;50.770;7.298;2023-12-20T07:23:15;9.20;;;2.83;;
43620;SDS011;29213;50.770;7.298;2023-12-20T07:25:40;10.60;;;3.17;;
43620;SDS011;29213;50.770;7.298;2023-12-20T07:28:05;11.70;;;2.92;;
43620;SDS011;29213;50.770;7.298;2023-12-20T07:30:31;9.93;;;3.13;;
43620;SDS011;29213;50.770;7.298;2023-12-20T07:32:56;10.45;;;3.28;;
43620;SDS011;29213;50.770;7.298;2023-12-20T07:35:23;11.80;;;2.85;;
43620;SDS011;29213;50.770;7.298;2023-12-20T07:37:48;11.88;;;3.47;;
43620;SDS011;29213;50.770;7.298;2023-12-20T07:40:14;9.05;;;3.00;;
43620;SDS011;29213;50.770;7.298;2023-12-20T07:42:42;10.00;;;3.15;;
43620;SDS011;29213;50.770;7.298;2023-12-20T07:45:07;10.27;;;2.88;;
43620;SDS011;29213;50.770;7.298;2023-12-20T07:47:34;9.38;;;3.47;;
43620;SDS011;29213;50.770;7.298;2023-12-20T07:49:59;11.23;;;2.70;;
43620;SDS011;29213;50.770;7.298;2023-12-20T07:52:25;12.23;;;3.05;;
43620;SDS011;29213;50.770;7.298;2023-12-20T07:54:51;9.48;;;2.58;;
43620;SDS011;29213;50.770;7.298;2023-12-20T07:57:16;11.50;;;3.00;;
43620;SDS011;29213;50.770;7.298;2023-12-20T07:59:42;13.48;;;3.33;;
43620;SDS011;29213;50.770;7.298;2023-12-20T08:02:09;9.90;;;2.53;;
43620;SDS011;29213;50.770;7.298;2023-12-20T08:04:34;11.70;;;3.63;;
43620;SDS011;29213;50.770;7.298;2023-12-20T08:07:00;16.08;;;3.03;;
43620;SDS011;29213;50.770;7.298;2023-12-20T08:09:25;10.73;;;2.95;;
43620;SDS011;29213;50.770;7.298;2023-12-20T08:11:51;10.60;;;3.15;;
43620;SDS011;29213;50.770;7.298;2023-12-20T08:14:16;14.63;;;3.20;;
43620;SDS011;29213;50.770;7.298;2023-12-20T08:16:42;11.73;;;3.00;;
43620;SDS011;29213;50.770;7.298;2023-12-20T08:19:07;11.70;;;2.88;;
43620;SDS011;29213;50.770;7.298;2023-12-20T08:21:32;9.05;;;2.67;;
43620;SDS011;29213;50.770;7.298;2023-12-20T08:23:58;9.25;;;2.72;;
43620;SDS011;29213;50.770;7.298;2023-12-20T08:26:25;14.27;;;3.33;;
43620;SDS011;29213;50.770;7.298;2023-12-20T08:28:51;8.07;;;2.63;;
43620;SDS011;29213;50.770;7.298;2023-12-20T08:31:17;12.52;;;2.92;;
43620;SDS011;29213;50.770;7.298;2023-12-20T08:33:43;10.20;;;3.10;;
43620;SDS011;29213;50.770;7.298;2023-12-20T08:36:10;8.98;;;2.78;;
43620;SDS011;29213;50.770;7.298;2023-12-20T08:38:36;11.60;;;3.10;;
43620;SDS011;29213;50.770;7.298;2023-12-20T08:41:01;11.73;;;3.10;;
43620;SDS011;29213;50.770;7.298;2023-12-20T08:43:28;9.55;;;2.78;;
43620;SDS011;29213;50.770;7.298;2023-12-20T08:45:53;8.88;;;2.75;;
43620;SDS011;29213;50.770;7.298;2023-12-20T08:48:19;15.05;;;3.33;;
43620;SDS011;29213;50.770;7.298;2023-12-20T08:50:44;10.27;;;3.00;;
43620;SDS011;29213;50.770;7.298;2023-12-20T08:53:10;9.63;;;3.28;;
43620;SDS011;29213;50.770;7.298;2023-12-20T08:55:36;11.45;;;2.88;;
43620;SDS011;29213;50.770;7.298;2023-12-20T08:58:02;9.75;;;2.88;;
43620;SDS011;29213;50.770;7.298;2023-12-20T09:00:27;9.95;;;2.85;;
43620;SDS011;29213;50.770;7.298;2023-12-20T09:02:53;11.25;;;3.50;;
43620;SDS011;29213;50.770;7.298;2023-12-20T09:05:19;7.72;;;2.47;;
43620;SDS011;29213;50.770;7.298;2023-12-20T09:07:45;11.00;;;3.15;;
43620;SDS011;29213;50.770;7.298;2023-12-20T09:10:10;8.75;;;2.63;;
43620;SDS011;29213;50.770;7.298;2023-12-20T09:12:36;10.23;;;2.60;;
43620;SDS011;29213;50.770;7.298;2023-12-20T09:15:04;9.13;;;2.83;;
43620;SDS011;29213;50.770;7.298;2023-12-20T09:17:30;9.18;;;2.78;;
43620;SDS011;29213;50.770;7.298;2023-12-20T09:19:56;8.10;;;2.85;;
43620;SDS011;29213;50.770;7.298;2023-12-20T09:22:21;9.10;;;2.70;;
43620;SDS011;29213;50.770;7.298;2023-12-20T09:24:46;8.63;;;2.72;;
43620;SDS011;29213;50.770;7.298;2023-12-20T09:27:12;7.43;;;2.85;;
43620;SDS011;29213;50.770;7.298;2023-12-20T09:29:37;9.10;;;2.63;;
43620;SDS011;29213;50.770;7.298;2023-12-20T09:32:03;8.68;;;2.70;;
43620;SDS011;29213;50.770;7.298;2023-12-20T09:34:28;8.95;;;3.03;;
43620;SDS011;29213;50.770;7.298;2023-12-20T09:36:54;10.20;;;2.80;;
43620;SDS011;29213;50.770;7.298;2023-12-20T09:39:20;10.57;;;2.92;;
43620;SDS011;29213;50.770;7.298;2023-12-20T09:41:49;9.20;;;2.72;;
43620;SDS011;29213;50.770;7.298;2023-12-20T09:44:24;8.93;;;2.50;;
43620;SDS011;29213;50.770;7.298;2023-12-20T09:46:50;9.45;;;2.50;;
43620;SDS011;29213;50.770;7.298;2023-12-20T09:49:18;13.98;;;3.30;;
43620;SDS011;29213;50.770;7.298;2023-12-20T09:51:44;11.48;;;2.70;;
43620;SDS011;29213;50.770;7.298;2023-12-20T09:54:12;10.77;;;3.00;;
43620;SDS011;29213;50.770;7.298;2023-12-20T09:56:39;10.52;;;2.72;;
43620;SDS011;29213;50.770;7.298;2023-12-20T09:59:04;11.02;;;2.83;;
43620;SDS011;29213;50.770;7.298;2023-12-20T10:01:30;8.00;;;2.60;;
43620;SDS011;29213;50.770;7.298;2023-12-20T10:03:56;10.57;;;3.22;;
43620;SDS011;29213;50.770;7.298;2023-12-20T10:06:23;9.75;;;2.75;;
43620;SDS011;29213;50.770;7.298;2023-12-20T10:08:49;8.52;;;2.75;;
43620;SDS011;29213;50.770;7.298;2023-12-20T10:11:14;11.70;;;2.80;;
43620;SDS011;29213;50.770;7.298;2023-12-20T10:13:40;8.27;;;2.65;;
43620;SDS011;29213;50.770;7.298;2023-12-20T10:16:06;8.43;;;2.75;;
43620;SDS011;29213;50.770;7.298;2023-12-20T10:18:32;9.98;;;2.80;;
43620;SDS011;29213;50.770;7.298;2023-12-20T10:20:58;11.23;;;2.78;;
43620;SDS011;29213;50.770;7.298;2023-12-20T10:23:25;13.38;;;3.20;;
43620;SDS011;29213;50.770;7.298;2023-12-20T10:25:57;12.05;;;2.85;;
43620;SDS011;29213;50.770;7.298;2023-12-20T10:28:25;9.88;;;2.80;;
43620;SDS011;29213;50.770;7.298;2023-12-20T10:30:54;12.38;;;2.58;;
43620;SDS011;29213;50.770;7.298;2023-12-20T10:33:24;11.45;;;2.95;;
43620;SDS011;29213;50.770;7.298;2023-12-20T10:35:53;10.25;;;2.55;;
43620;SDS011;29213;50.770;7.298;2023-12-20T10:38:20;12.90;;;3.40;;
43620;SDS011;29213;50.770;7.298;2023-12-20T10:40:46;8.65;;;2.45;;
43620;SDS011;29213;50.770;7.298;2023-12-20T10:43:11;11.63;;;2.70;;
43620;SDS011;29213;50.770;7.298;2023-12-20T10:45:37;8.30;;;2.55;;
43620;SDS011;29213;50.770;7.298;2023-12-20T10:48:03;9.68;;;2.78;;
43620;SDS011;29213;50.770;7.298;2023-12-20T10:50:30;11.93;;;2.60;;
43620;SDS011;29213;50.770;7.298;2023-12-20T10:52:56;11.75;;;3.00;;
43620;SDS011;29213;50.770;7.298;2023-12-20T10:55:25;10.77;;;2.85;;
43620;SDS011;29213;50.770;7.298;2023-12-20T10:57:51;11.18;;;3.13;;
43620;SDS011;29213;50.770;7.298;2023-12-20T11:00:18;14.07;;;3.28;;
43620;SDS011;29213;50.770;7.298;2023-12-20T11:02:44;9.38;;;2.55;;
43620;SDS011;29213;50.770;7.298;2023-12-20T11:07:43;8.25;;;2.60;;
43620;SDS011;29213;50.770;7.298;2023-12-20T11:10:18;10.75;;;3.13;;
43620;SDS011;29213;50.770;7.298;2023-12-20T11:12:58;8.38;;;2.60;;
43620;SDS011;29213;50.770;7.298;2023-12-20T11:15:52;11.05;;;2.90;;
43620;SDS011;29213;50.770;7.298;2023-12-20T11:18:18;9.23;;;3.10;;
43620;SDS011;29213;50.770;7.298;2023-12-20T11:20:43;9.82;;;2.63;;
43620;SDS011;29213;50.770;7.298;2023-12-20T11:23:09;8.18;;;2.30;;
43620;SDS011;29213;50.770;7.298;2023-12-20T11:25:53;10.27;;;2.85;;
43620;SDS011;29213;50.770;7.298;2023-12-20T11:28:24;10.32;;;3.10;;
43620;SDS011;29213;50.770;7.298;2023-12-20T11:30:51;9.18;;;2.30;;
43620;SDS011;29213;50.770;7.298;2023-12-20T11:33:24;9.32;;;2.50;;
43620;SDS011;29213;50.770;7.298;2023-12-20T11:36:00;12.93;;;2.80;;
43620;SDS011;29213;50.770;7.298;2023-12-20T11:38:26;7.93;;;2.60;;
43620;SDS011;29213;50.770;7.298;2023-12-20T11:40:53;8.93;;;2.90;;
43620;SDS011;29213;50.770;7.298;2023-12-20T11:43:32;7.93;;;2.97;;
43620;SDS011;29213;50.770;7.298;2023-12-20T11:46:04;10.60;;;2.90;;
43620;SDS011;29213;50.770;7.298;2023-12-20T11:48:31;12.80;;;3.10;;
43620;SDS011;29213;50.770;7.298;2023-12-20T11:50:57;10.50;;;2.85;;
43620;SDS011;29213;50.770;7.298;2023-12-20T11:53:23;9.35;;;2.80;;
43620;SDS011;29213;50.770;7.298;2023-12-20T11:55:49;8.98;;;2.70;;
43620;SDS011;29213;50.770;7.298;2023-12-20T11:58:14;8.27;;;2.72;;
43620;SDS011;29213;50.770;7.298;2023-12-20T12:00:41;12.50;;;2.80;;
43620;SDS011;29213;50.770;7.298;2023-12-20T12:03:14;9.53;;;3.03;;
43620;SDS011;29213;50.770;7.298;2023-12-20T12:05:39;11.53;;;4.10;;
43620;SDS011;29213;50.770;7.298;2023-12-20T12:08:05;12.63;;;4.07;;
43620;SDS011;29213;50.770;7.298;2023-12-20T12:10:31;8.48;;;3.45;;
43620;SDS011;29213;50.770;7.298;2023-12-20T12:12:56;10.43;;;3.20;;
43620;SDS011;29213;50.770;7.298;2023-12-20T12:15:21;10.05;;;2.90;;
43620;SDS011;29213;50.770;7.298;2023-12-20T12:17:56;9.98;;;2.65;;
43620;SDS011;29213;50.770;7.298;2023-12-20T12:20:22;8.00;;;2.53;;
43620;SDS011;29213;50.770;7.298;2023-12-20T12:23:02;11.05;;;3.65;;
43620;SDS011;29213;50.770;7.298;2023-12-20T12:25:29;8.27;;;2.80;;
43620;SDS011;29213;50.770;7.298;2023-12-20T12:27:56;16.35;;;7.95;;
43620;SDS011;29213;50.770;7.298;2023-12-20T12:30:23;41.25;;;15.60;;
43620;SDS011;29213;50.770;7.298;2023-12-20T12:32:49;17.25;;;6.68;;
43620;SDS011;29213;50.770;7.298;2023-12-20T12:35:16;17.23;;;5.32;;
43620;SDS011;29213;50.770;7.298;2023-12-20T12:37:41;28.15;;;10.57;;
43620;SDS011;29213;50.770;7.298;2023-12-20T12:42:37;11.15;;;3.60;;
43620;SDS011;29213;50.770;7.298;2023-12-20T12:45:03;8.77;;;2.50;;
43620;SDS011;29213;50.770;7.298;2023-12-20T12:47:29;8.05;;;2.70;;
43620;SDS011;29213;50.770;7.298;2023-12-20T12:49:55;9.30;;;2.80;;
43620;SDS011;29213;50.770;7.298;2023-12-20T12:52:21;8.00;;;2.45;;
43620;SDS011;29213;50.770;7.298;2023-12-20T12:54:47;9.38;;;2.88;;
43620;SDS011;29213;50.770;7.298;2023-12-20T12:57:14;9.73;;;4.53;;
43620;SDS011;29213;50.770;7.298;2023-12-20T12:59:40;10.45;;;4.68;;
43620;SDS011;29213;50.770;7.298;2023-12-20T13:02:06;9.93;;;3.70;;
43620;SDS011;29213;50.770;7.298;2023-12-20T13:04:31;10.25;;;5.55;;
43620;SDS011;29213;50.770;7.298;2023-12-20T13:06:57;8.75;;;3.72;;
43620;SDS011;29213;50.770;7.298;2023-12-20T13:09:22;17.00;;;6.53;;
43620;SDS011;29213;50.770;7.298;2023-12-20T13:11:48;11.40;;;3.97;;
43620;SDS011;29213;50.770;7.298;2023-12-20T13:14:13;9.90;;;2.72;;
43620;SDS011;29213;50.770;7.298;2023-12-20T13:16:41;10.00;;;4.07;;
43620;SDS011;29213;50.770;7.298;2023-12-20T13:19:07;12.52;;;5.22;;
43620;SDS011;29213;50.770;7.298;2023-12-20T13:21:32;10.82;;;2.75;;
43620;SDS011;29213;50.770;7.298;2023-12-20T13:23:58;7.78;;;2.60;;
43620;SDS011;29213;50.770;7.298;2023-12-20T13:26:23;11.20;;;3.95;;
43620;SDS011;29213;50.770;7.298;2023-12-20T13:28:48;7.28;;;2.60;;
43620;SDS011;29213;50.770;7.298;2023-12-20T13:31:14;13.27;;;4.38;;
43620;SDS011;29213;50.770;7.298;2023-12-20T13:33:39;9.82;;;3.00;;
43620;SDS011;29213;50.770;7.298;2023-12-20T13:36:05;8.02;;;2.60;;
43620;SDS011;29213;50.770;7.298;2023-12-20T13:38:31;13.52;;;5.95;;
43620;SDS011;29213;50.770;7.298;2023-12-20T13:40:57;9.82;;;3.42;;
43620;SDS011;29213;50.770;7.298;2023-12-20T13:43:24;9.20;;;2.85;;
43620;SDS011;29213;50.770;7.298;2023-12-20T13:45:49;7.97;;;2.70;;
43620;SDS011;29213;50.770;7.298;2023-12-20T13:48:15;10.60;;;2.80;;
43620;SDS011;29213;50.770;7.298;2023-12-20T13:50:40;8.00;;;2.70;;
43620;SDS011;29213;50.770;7.298;2023-12-20T13:53:06;7.43;;;2.45;;
43620;SDS011;29213;50.770;7.298;2023-12-20T13:55:32;9.73;;;2.97;;
43620;SDS011;29213;50.770;7.298;2023-12-20T13:57:57;7.10;;;2.50;;
43620;SDS011;29213;50.770;7.298;2023-12-20T14:00:23;7.72;;;2.65;;
43620;SDS011;29213;50.770;7.298;2023-12-20T14:02:49;7.30;;;2.60;;
43620;SDS011;29213;50.770;7.298;2023-12-20T14:05:15;11.45;;;3.80;;
43620;SDS011;29213;50.770;7.298;2023-12-20T14:07:42;8.60;;;2.60;;
43620;SDS011;29213;50.770;7.298;2023-12-20T14:10:11;10.02;;;2.88;;
43620;SDS011;29213;50.770;7.298;2023-12-20T14:12:37;7.35;;;2.80;;
43620;SDS011;29213;50.770;7.298;2023-12-20T14:15:03;9.48;;;2.80;;
43620;SDS011;29213;50.770;7.298;2023-12-20T14:17:29;11.32;;;3.03;;
43620;SDS011;29213;50.770;7.298;2023-12-20T14:19:54;8.35;;;2.90;;
43620;SDS011;29213;50.770;7.298;2023-12-20T14:22:20;8.63;;;2.70;;
43620;SDS011;29213;50.770;7.298;2023-12-20T14:24:45;8.25;;;2.70;;
43620;SDS011;29213;50.770;7.298;2023-12-20T14:27:11;6.97;;;2.40;;
43620;SDS011;29213;50.770;7.298;2023-12-20T14:29:36;6.88;;;2.40;;
43620;SDS011;29213;50.770;7.298;2023-12-20T14:32:03;6.25;;;2.10;;
43620;SDS011;29213;50.770;7.298;2023-12-20T14:34:29;8.80;;;2.30;;
43620;SDS011;29213;50.770;7.298;2023-12-20T14:36:55;9.77;;;2.40;;
43620;SDS011;29213;50.770;7.298;2023-12-20T14:39:20;4.72;;;2.10;;
43620;SDS011;29213;50.770;7.298;2023-12-20T14:41:46;7.65;;;2.28;;